createdAt,value
2019-03-27T00:00:44.066Z,4.63
2019-03-27T00:02:46.409Z,4.40
2019-03-27T00:04:48.773Z,5.30
2019-03-27T00:06:51.157Z,5.60
2019-03-27T00:08:53.410Z,4.93
2019-03-27T00:10:55.656Z,6.10
2019-03-27T00:12:58.096Z,5.08
2019-03-27T00:15:12.142Z,6.20
2019-03-27T00:17:04.477Z,4.80
2019-03-27T00:19:06.749Z,5.25
2019-03-27T00:21:09.510Z,4.95
2019-03-27T00:23:11.753Z,4.92
2019-03-27T00:25:14.143Z,4.85
2019-03-27T00:27:16.396Z,5.65
2019-03-27T00:29:18.686Z,4.95
2019-03-27T00:31:20.935Z,5.80
2019-03-27T00:33:23.193Z,4.65
2019-03-27T00:35:25.839Z,5.85
2019-03-27T00:37:28.105Z,5.00
2019-03-27T00:39:30.454Z,5.20
2019-03-27T00:41:32.813Z,6.22
2019-03-27T00:43:35.069Z,7.35
2019-03-27T00:45:37.422Z,5.80
2019-03-27T00:47:39.705Z,5.03
2019-03-27T00:49:42.068Z,5.40
2019-03-27T00:51:44.318Z,5.70
2019-03-27T00:53:46.673Z,5.83
2019-03-27T00:55:48.925Z,5.47
2019-03-27T00:57:51.177Z,5.55
2019-03-27T00:59:53.509Z,6.45
2019-03-27T01:01:55.762Z,5.65
2019-03-27T01:03:58.118Z,5.47
2019-03-27T01:06:00.477Z,5.65
2019-03-27T01:08:02.997Z,5.72
2019-03-27T01:10:06.021Z,6.53
2019-03-27T01:12:08.278Z,6.28
2019-03-27T01:14:10.523Z,6.17
2019-03-27T01:16:12.996Z,5.28
2019-03-27T01:18:15.275Z,6.70
2019-03-27T01:20:17.541Z,6.90
2019-03-27T01:22:19.793Z,5.87
2019-03-27T01:24:22.072Z,5.95
2019-03-27T01:26:24.333Z,5.60
2019-03-27T01:28:26.577Z,5.20
2019-03-27T01:30:28.845Z,6.05
2019-03-27T01:32:31.097Z,5.70
2019-03-27T01:34:33.470Z,6.40
2019-03-27T01:36:35.861Z,5.83
2019-03-27T01:38:38.221Z,6.72
2019-03-27T01:40:40.489Z,6.37
2019-03-27T01:42:42.745Z,6.40
2019-03-27T01:44:45.117Z,7.25
2019-03-27T01:46:47.364Z,6.67
2019-03-27T01:48:49.636Z,7.20
2019-03-27T01:50:51.901Z,8.08
2019-03-27T01:52:54.275Z,6.70
2019-03-27T01:54:56.529Z,7.30
2019-03-27T01:56:58.773Z,8.10
2019-03-27T01:59:01.054Z,6.95
2019-03-27T02:01:03.710Z,7.67
2019-03-27T02:03:05.972Z,7.90
2019-03-27T02:05:08.478Z,7.33
2019-03-27T02:07:10.733Z,7.75
2019-03-27T02:09:13.110Z,8.35
2019-03-27T02:11:15.423Z,8.98
2019-03-27T02:13:17.678Z,8.18
2019-03-27T02:15:20.033Z,9.30
2019-03-27T02:17:22.301Z,8.60
2019-03-27T02:19:24.656Z,8.85
2019-03-27T02:21:27.029Z,8.15
2019-03-27T02:23:29.306Z,8.98
2019-03-27T02:25:31.576Z,7.20
2019-03-27T02:27:34.000Z,8.00
2019-03-27T02:29:36.463Z,7.90
2019-03-27T02:31:38.735Z,8.35
2019-03-27T02:33:41.077Z,9.48
2019-03-27T02:35:43.459Z,10.13
2019-03-27T02:37:45.765Z,8.95
2019-03-27T02:39:48.145Z,8.53
2019-03-27T02:41:50.579Z,7.85
2019-03-27T02:43:52.831Z,8.30
2019-03-27T02:45:55.083Z,8.38
2019-03-27T02:47:57.373Z,9.40
2019-03-27T02:49:59.722Z,8.60
2019-03-27T02:52:01.976Z,8.03
2019-03-27T02:54:04.228Z,8.28
2019-03-27T02:56:06.500Z,8.35
2019-03-27T02:58:08.762Z,8.23
2019-03-27T03:00:11.630Z,7.40
2019-03-27T03:02:13.905Z,9.03
2019-03-27T03:04:16.250Z,8.13
2019-03-27T03:06:18.729Z,8.78
2019-03-27T03:08:21.206Z,8.38
2019-03-27T03:10:23.667Z,9.95
2019-03-27T03:12:26.009Z,8.88
2019-03-27T03:14:28.253Z,8.20
2019-03-27T03:16:42.122Z,8.55
2019-03-27T03:18:34.814Z,9.43
2019-03-27T03:20:37.065Z,9.83
2019-03-27T03:22:40.111Z,10.38
2019-03-27T03:24:42.384Z,11.60
2019-03-27T03:26:44.754Z,10.00
2019-03-27T03:28:47.007Z,11.60
2019-03-27T03:30:49.281Z,10.82
2019-03-27T03:32:51.746Z,13.10
2019-03-27T03:34:53.994Z,10.45
2019-03-27T03:36:56.266Z,10.48
2019-03-27T03:38:58.515Z,12.20
2019-03-27T03:41:01.170Z,11.88
2019-03-27T03:43:03.636Z,12.60
2019-03-27T03:45:06.447Z,10.65
2019-03-27T03:47:08.697Z,10.48
2019-03-27T03:49:10.976Z,12.73
2019-03-27T03:51:14.405Z,11.43
2019-03-27T03:53:16.893Z,10.90
2019-03-27T03:55:19.434Z,11.38
2019-03-27T03:57:24.102Z,11.40
2019-03-27T03:59:27.910Z,10.05
2019-03-27T04:01:33.668Z,11.25
2019-03-27T04:03:37.930Z,10.55
2019-03-27T04:05:40.197Z,11.18
2019-03-27T04:07:42.490Z,10.60
2019-03-27T04:09:44.964Z,10.43
2019-03-27T04:11:47.378Z,11.18
2019-03-27T04:13:49.643Z,10.82
2019-03-27T04:15:51.995Z,11.70
2019-03-27T04:17:54.258Z,9.18
2019-03-27T04:19:57.113Z,11.78
2019-03-27T04:21:59.420Z,12.30
2019-03-27T04:24:02.195Z,11.65
2019-03-27T04:26:10.305Z,10.65
2019-03-27T04:28:08.626Z,11.78
2019-03-27T04:30:11.294Z,11.12
2019-03-27T04:32:13.685Z,10.03
2019-03-27T04:34:15.941Z,11.18
2019-03-27T04:36:18.297Z,10.50
2019-03-27T04:38:20.583Z,10.55
2019-03-27T04:40:22.943Z,11.18
2019-03-27T04:42:25.196Z,11.18
2019-03-27T04:44:27.567Z,11.18
2019-03-27T04:46:29.813Z,11.95
2019-03-27T04:48:32.090Z,10.80
2019-03-27T04:50:34.477Z,12.05
2019-03-27T04:52:36.825Z,11.53
2019-03-27T04:54:39.077Z,11.63
2019-03-27T04:56:41.500Z,11.83
2019-03-27T04:58:43.753Z,11.70
2019-03-27T05:00:46.024Z,34.53
2019-03-27T05:02:48.329Z,12.25
2019-03-27T05:04:50.896Z,12.35
2019-03-27T05:06:53.153Z,9.88
2019-03-27T05:08:55.413Z,12.20
2019-03-27T05:10:57.677Z,9.80
2019-03-27T05:12:59.966Z,11.00
2019-03-27T05:15:02.525Z,9.43
2019-03-27T05:17:04.770Z,9.18
2019-03-27T05:19:07.172Z,9.80
2019-03-27T05:21:09.467Z,9.65
2019-03-27T05:23:11.732Z,10.63
2019-03-27T05:25:14.009Z,9.53
2019-03-27T05:27:16.261Z,10.20
2019-03-27T05:29:18.533Z,9.85
2019-03-27T05:31:20.813Z,9.93
2019-03-27T05:33:23.089Z,8.98
2019-03-27T05:35:25.556Z,9.23
2019-03-27T05:37:27.913Z,9.43
2019-03-27T05:39:30.166Z,9.90
2019-03-27T05:41:32.436Z,13.03
2019-03-27T05:43:34.723Z,9.08
2019-03-27T05:45:37.161Z,10.88
2019-03-27T05:47:39.540Z,9.55
2019-03-27T05:49:41.827Z,8.70
2019-03-27T05:51:44.156Z,10.25
2019-03-27T05:53:46.422Z,10.98
2019-03-27T05:55:48.798Z,10.15
2019-03-27T05:57:51.053Z,10.75
2019-03-27T05:59:53.325Z,10.38
2019-03-27T06:01:55.623Z,10.20
2019-03-27T06:03:57.866Z,10.70
2019-03-27T06:06:00.222Z,11.15
2019-03-27T06:08:02.490Z,12.05
2019-03-27T06:10:05.235Z,12.15
2019-03-27T06:12:07.485Z,12.20
2019-03-27T06:14:09.778Z,12.03
2019-03-27T06:16:12.242Z,13.00
2019-03-27T06:18:14.507Z,12.07
2019-03-27T06:20:20.345Z,13.90
2019-03-27T06:22:22.597Z,13.83
2019-03-27T06:24:24.862Z,13.93
2019-03-27T06:26:27.180Z,12.98
2019-03-27T06:28:29.453Z,12.30
2019-03-27T06:30:31.737Z,14.00
2019-03-27T06:32:34.573Z,25.62
2019-03-27T06:34:36.854Z,14.47
2019-03-27T06:36:39.198Z,13.13
2019-03-27T06:38:41.733Z,12.75
2019-03-27T06:40:44.057Z,11.85
2019-03-27T06:42:46.322Z,12.77
2019-03-27T06:44:48.609Z,11.70
2019-03-27T06:46:50.859Z,12.07
2019-03-27T06:48:53.118Z,13.25
2019-03-27T06:50:55.394Z,11.35
2019-03-27T06:52:57.853Z,11.57
2019-03-27T06:55:00.453Z,12.00
2019-03-27T06:57:02.858Z,11.30
2019-03-27T06:59:05.217Z,11.90
2019-03-27T07:01:07.660Z,11.68
2019-03-27T07:03:10.247Z,11.73
2019-03-27T07:05:12.693Z,11.60
2019-03-27T07:07:14.971Z,12.57
2019-03-27T07:09:17.256Z,11.88
2019-03-27T07:11:19.604Z,10.57
2019-03-27T07:13:21.902Z,11.63
2019-03-27T07:15:24.329Z,10.90
2019-03-27T07:17:26.594Z,10.80
2019-03-27T07:19:28.866Z,10.00
2019-03-27T07:21:31.218Z,10.03
2019-03-27T07:23:33.514Z,10.53
2019-03-27T07:25:35.797Z,9.73
2019-03-27T07:27:38.478Z,10.30
2019-03-27T07:29:40.729Z,10.03
2019-03-27T07:31:43.050Z,10.25
2019-03-27T07:33:45.315Z,10.15
2019-03-27T07:35:47.618Z,9.13
2019-03-27T07:37:49.934Z,8.90
2019-03-27T07:39:52.197Z,8.77
2019-03-27T07:41:54.482Z,9.57
2019-03-27T07:43:56.762Z,8.27
2019-03-27T07:45:59.139Z,8.30
2019-03-27T07:48:01.417Z,7.40
2019-03-27T07:50:04.256Z,7.07
2019-03-27T07:52:06.776Z,6.90
2019-03-27T07:54:09.326Z,7.00
2019-03-27T07:56:11.626Z,6.73
2019-03-27T07:58:13.900Z,6.57
2019-03-27T08:00:17.165Z,6.67
2019-03-27T08:02:19.625Z,6.13
2019-03-27T08:04:21.893Z,6.30
2019-03-27T08:06:24.492Z,6.10
2019-03-27T08:08:26.774Z,6.10
2019-03-27T08:10:29.033Z,5.63
2019-03-27T08:12:31.302Z,5.60
2019-03-27T08:14:33.653Z,6.10
2019-03-27T08:16:35.966Z,5.77
2019-03-27T08:18:38.331Z,6.40
2019-03-27T08:20:40.873Z,4.57
2019-03-27T08:22:43.453Z,4.40
2019-03-27T08:24:47.419Z,5.07
2019-03-27T08:26:49.799Z,4.53
2019-03-27T08:28:52.104Z,5.03
2019-03-27T08:30:54.386Z,6.20
2019-03-27T08:32:56.645Z,4.60
2019-03-27T08:34:58.945Z,6.13
2019-03-27T08:37:01.218Z,4.60
2019-03-27T08:39:06.256Z,4.17
2019-03-27T08:41:08.640Z,5.10
2019-03-27T08:43:21.055Z,5.20
2019-03-27T08:45:15.597Z,4.20
2019-03-27T08:47:17.899Z,4.43
2019-03-27T08:49:22.263Z,4.40
2019-03-27T08:51:24.984Z,4.33
2019-03-27T08:53:27.358Z,3.77
2019-03-27T08:55:29.723Z,4.23
2019-03-27T08:57:32.300Z,4.70
2019-03-27T08:59:34.887Z,4.20
2019-03-27T09:01:37.234Z,4.97
2019-03-27T09:03:39.519Z,4.70
2019-03-27T09:05:41.945Z,5.17
2019-03-27T09:07:44.215Z,4.50
2019-03-27T09:09:46.490Z,4.23
2019-03-27T09:11:48.856Z,4.10
2019-03-27T09:13:51.118Z,4.60
2019-03-27T09:15:53.489Z,4.50
2019-03-27T09:17:55.844Z,6.43
2019-03-27T09:19:58.115Z,4.43
2019-03-27T09:22:00.535Z,4.60
2019-03-27T09:24:03.222Z,5.00
2019-03-27T09:26:05.481Z,4.07
2019-03-27T09:28:07.949Z,4.23
2019-03-27T09:30:11.021Z,4.43
2019-03-27T09:32:13.389Z,4.20
2019-03-27T09:34:17.668Z,3.70
2019-03-27T09:36:19.990Z,4.27
2019-03-27T09:38:22.250Z,3.60
2019-03-27T09:40:24.977Z,4.97
2019-03-27T09:42:27.231Z,3.87
2019-03-27T09:44:29.483Z,3.27
2019-03-27T09:46:31.783Z,4.30
2019-03-27T09:48:34.142Z,4.00
2019-03-27T09:50:36.506Z,5.10
2019-03-27T09:52:38.809Z,3.60
2019-03-27T09:54:41.156Z,3.63
2019-03-27T09:56:43.451Z,3.90
2019-03-27T09:58:45.746Z,4.00
2019-03-27T10:01:09.954Z,4.10
2019-03-27T10:03:12.221Z,3.70
2019-03-27T10:05:14.651Z,3.90
2019-03-27T10:07:17.263Z,3.60
2019-03-27T10:09:19.509Z,3.60
2019-03-27T10:11:23.821Z,6.10
2019-03-27T10:13:26.241Z,4.87
2019-03-27T10:15:28.654Z,4.00
2019-03-27T10:17:31.175Z,7.03
2019-03-27T10:19:33.571Z,9.87
2019-03-27T10:21:35.824Z,4.50
2019-03-27T10:23:38.371Z,4.87
2019-03-27T10:25:40.657Z,4.67
2019-03-27T10:27:43.033Z,3.93
2019-03-27T10:29:46.147Z,4.00
2019-03-27T10:31:48.406Z,3.93
2019-03-27T10:33:50.730Z,4.67
2019-03-27T10:35:53.111Z,3.83
2019-03-27T10:37:55.387Z,4.40
2019-03-27T10:39:57.637Z,4.30
2019-03-27T10:42:00.060Z,4.37
2019-03-27T10:44:02.611Z,4.23
2019-03-27T10:46:05.039Z,4.73
2019-03-27T10:48:07.416Z,4.47
2019-03-27T10:50:17.457Z,4.77
2019-03-27T10:52:14.457Z,4.10
2019-03-27T10:54:16.713Z,4.47
2019-03-27T10:56:18.983Z,4.03
2019-03-27T10:58:21.925Z,4.43
2019-03-27T11:00:24.180Z,4.80
2019-03-27T11:02:26.572Z,5.00
2019-03-27T11:04:28.857Z,4.53
2019-03-27T11:06:31.134Z,4.53
2019-03-27T11:08:33.524Z,5.70
2019-03-27T11:10:35.906Z,5.30
2019-03-27T11:12:38.256Z,4.70
2019-03-27T11:14:40.556Z,6.23
2019-03-27T11:16:42.900Z,4.87
2019-03-27T11:18:45.166Z,5.43
2019-03-27T11:20:47.454Z,5.10
2019-03-27T11:22:49.819Z,5.20
2019-03-27T11:24:52.109Z,5.83
2019-03-27T11:26:54.378Z,5.47
2019-03-27T11:28:56.629Z,4.90
2019-03-27T11:30:58.906Z,4.30
2019-03-27T11:33:01.176Z,5.40
2019-03-27T11:35:05.106Z,5.37
2019-03-27T11:37:07.371Z,5.53
2019-03-27T11:39:09.854Z,5.30
2019-03-27T11:41:12.486Z,4.07
2019-03-27T11:43:15.185Z,3.70
2019-03-27T11:45:17.805Z,4.07
2019-03-27T11:47:20.316Z,4.37
2019-03-27T11:49:22.977Z,4.53
2019-03-27T11:51:25.472Z,4.90
2019-03-27T11:53:28.309Z,4.80
2019-03-27T11:55:30.846Z,4.77
2019-03-27T11:57:33.667Z,4.80
2019-03-27T11:59:36.014Z,4.80
2019-03-27T12:01:42.055Z,4.50
2019-03-27T12:08:23.277Z,4.43
2019-03-27T12:10:25.548Z,5.50
2019-03-27T12:12:27.803Z,4.90
2019-03-27T12:14:30.062Z,5.00
2019-03-27T12:16:32.446Z,4.67
2019-03-27T12:18:34.806Z,5.90
2019-03-27T12:20:37.178Z,5.43
2019-03-27T12:22:39.847Z,5.13
2019-03-27T12:24:42.105Z,4.70
2019-03-27T12:26:44.339Z,4.90
2019-03-27T12:28:46.701Z,4.70
2019-03-27T12:30:48.946Z,5.47
2019-03-27T12:32:52.189Z,4.60
2019-03-27T12:34:55.305Z,4.90
2019-03-27T12:36:57.548Z,4.60
2019-03-27T12:38:59.801Z,4.50
2019-03-27T12:41:02.501Z,5.00
2019-03-27T12:43:04.981Z,4.83
2019-03-27T12:45:07.443Z,4.50
2019-03-27T12:47:09.963Z,4.30
2019-03-27T12:49:12.238Z,5.03
2019-03-27T12:51:17.373Z,4.60
2019-03-27T12:53:19.738Z,5.17
2019-03-27T12:55:22.133Z,5.43
2019-03-27T12:57:24.381Z,4.80
2019-03-27T12:59:26.733Z,4.70
2019-03-27T13:01:28.990Z,5.03
2019-03-27T13:03:31.237Z,5.10
2019-03-27T13:05:33.597Z,5.87
2019-03-27T13:07:49.102Z,5.13
2019-03-27T13:09:40.061Z,5.53
2019-03-27T13:11:42.569Z,5.67
2019-03-27T13:13:44.813Z,5.53
2019-03-27T13:15:47.066Z,5.00
2019-03-27T13:17:49.437Z,4.43
2019-03-27T13:19:51.956Z,4.73
2019-03-27T13:21:54.269Z,5.37
2019-03-27T13:23:56.561Z,5.40
2019-03-27T13:25:58.817Z,5.50
2019-03-27T13:28:01.061Z,5.50
2019-03-27T13:30:03.869Z,6.10
2019-03-27T13:32:06.205Z,5.63
2019-03-27T13:34:08.613Z,5.80
2019-03-27T13:36:10.977Z,5.37
2019-03-27T13:38:13.245Z,5.90
2019-03-27T13:40:16.296Z,5.67
2019-03-27T13:42:21.529Z,6.30
2019-03-27T13:44:36.320Z,5.47
2019-03-27T13:46:28.050Z,22.63
2019-03-27T13:48:31.608Z,9.07
2019-03-27T13:50:33.887Z,5.67
2019-03-27T13:52:36.229Z,6.27
2019-03-27T13:54:38.665Z,5.37
2019-03-27T13:56:41.002Z,5.73
2019-03-27T13:58:43.354Z,5.30
2019-03-27T14:00:45.630Z,5.57
2019-03-27T14:02:50.858Z,4.80
2019-03-27T14:04:53.201Z,6.13
2019-03-27T14:06:55.646Z,4.83
2019-03-27T14:08:57.916Z,5.63
2019-03-27T14:11:00.166Z,5.30
2019-03-27T14:13:02.558Z,4.10
2019-03-27T14:15:07.251Z,4.30
2019-03-27T14:17:09.514Z,4.90
2019-03-27T14:19:11.861Z,4.80
2019-03-27T14:21:14.121Z,4.60
2019-03-27T14:23:16.375Z,4.70
2019-03-27T14:25:21.942Z,3.77
2019-03-27T14:27:23.366Z,3.87
2019-03-27T14:29:25.637Z,3.87
2019-03-27T14:31:27.901Z,3.63
2019-03-27T14:33:31.066Z,4.00
2019-03-27T14:35:33.588Z,3.40
2019-03-27T14:37:38.905Z,3.60
2019-03-27T14:39:41.205Z,4.27
2019-03-27T14:41:43.839Z,3.67
2019-03-27T14:43:46.077Z,3.83
2019-03-27T14:45:48.780Z,4.37
2019-03-27T14:47:51.046Z,4.60
2019-03-27T14:49:53.301Z,4.20
2019-03-27T14:52:07.679Z,4.40
2019-03-27T14:53:59.918Z,3.77
2019-03-27T14:56:02.282Z,4.40
2019-03-27T14:58:04.549Z,4.07
2019-03-27T15:00:10.932Z,4.67
2019-03-27T15:02:13.488Z,4.93
2019-03-27T15:04:15.841Z,4.63
2019-03-27T15:06:18.226Z,4.23
2019-03-27T15:08:20.871Z,3.97
2019-03-27T15:10:23.220Z,5.30
2019-03-27T15:12:25.879Z,4.73
2019-03-27T15:14:28.158Z,5.50
2019-03-27T15:16:30.405Z,5.43
2019-03-27T15:18:32.896Z,4.90
2019-03-27T15:20:35.365Z,5.27
2019-03-27T15:22:37.621Z,4.90
2019-03-27T15:24:39.889Z,4.93
2019-03-27T15:26:42.164Z,5.67
2019-03-27T15:28:44.417Z,5.70
2019-03-27T15:30:46.705Z,6.80
2019-03-27T15:32:48.966Z,6.63
2019-03-27T15:34:51.233Z,6.03
2019-03-27T15:36:53.488Z,6.30
2019-03-27T15:38:55.744Z,6.67
2019-03-27T15:40:58.125Z,6.70
2019-03-27T15:43:00.442Z,7.17
2019-03-27T15:45:03.782Z,7.00
2019-03-27T15:47:06.133Z,7.00
2019-03-27T15:49:08.416Z,8.00
2019-03-27T15:51:10.658Z,7.70
2019-03-27T15:53:13.001Z,7.87
2019-03-27T15:55:15.490Z,8.00
2019-03-27T15:57:17.854Z,9.23
2019-03-27T15:59:20.200Z,9.93
2019-03-27T16:01:22.457Z,9.27
2019-03-27T16:03:24.705Z,9.50
2019-03-27T16:05:27.067Z,10.80
2019-03-27T16:07:31.295Z,9.50
2019-03-27T16:09:33.738Z,10.73
2019-03-27T16:11:36.005Z,11.57
2019-03-27T16:13:38.282Z,11.00
2019-03-27T16:15:40.648Z,11.13
2019-03-27T16:17:43.009Z,10.70
2019-03-27T16:19:45.455Z,11.20
2019-03-27T16:21:47.721Z,10.20
2019-03-27T16:23:49.982Z,9.33
2019-03-27T16:25:52.281Z,9.70
2019-03-27T16:27:54.653Z,9.30
2019-03-27T16:29:56.986Z,10.03
2019-03-27T16:31:59.297Z,9.13
2019-03-27T16:34:01.674Z,8.40
2019-03-27T16:36:03.966Z,9.13
2019-03-27T16:38:06.517Z,8.50
2019-03-27T16:40:09.097Z,8.93
2019-03-27T16:42:11.546Z,8.50
2019-03-27T16:44:15.985Z,8.87
2019-03-27T16:46:18.330Z,8.37
2019-03-27T16:48:20.793Z,8.93
2019-03-27T16:50:23.190Z,9.60
2019-03-27T16:52:25.606Z,8.70
2019-03-27T16:54:27.940Z,8.13
2019-03-27T16:56:30.355Z,9.73
2019-03-27T16:58:32.603Z,9.43
2019-03-27T17:00:34.937Z,9.67
2019-03-27T17:02:37.200Z,9.43
2019-03-27T17:04:39.734Z,9.70
2019-03-27T17:06:41.970Z,9.70
2019-03-27T17:08:44.489Z,10.00
2019-03-27T17:10:47.298Z,9.93
2019-03-27T17:12:49.661Z,11.87
2019-03-27T17:14:51.921Z,13.97
2019-03-27T17:16:54.305Z,11.10
2019-03-27T17:18:58.002Z,11.13
2019-03-27T17:21:00.255Z,11.30
2019-03-27T17:23:02.709Z,10.57
2019-03-27T17:25:05.459Z,10.27
2019-03-27T17:27:07.922Z,11.00
2019-03-27T17:29:10.377Z,10.50
2019-03-27T17:31:13.710Z,11.07
2019-03-27T17:33:16.062Z,11.67
2019-03-27T17:35:18.341Z,9.97
2019-03-27T17:37:20.695Z,9.07
2019-03-27T17:39:22.965Z,11.43
2019-03-27T17:41:28.165Z,10.07
2019-03-27T17:43:29.421Z,9.43
2019-03-27T17:45:31.691Z,10.30
2019-03-27T17:47:34.088Z,10.60
2019-03-27T17:49:36.333Z,11.50
2019-03-27T17:51:38.595Z,10.17
2019-03-27T17:53:41.013Z,10.63
2019-03-27T17:55:43.259Z,12.30
2019-03-27T17:57:45.581Z,12.23
2019-03-27T17:59:47.875Z,11.80
2019-03-27T18:01:50.192Z,12.33
2019-03-27T18:03:52.554Z,13.40
2019-03-27T18:05:54.912Z,12.83
2019-03-27T18:07:57.198Z,13.00
2019-03-27T18:09:59.454Z,13.30
2019-03-27T18:12:01.824Z,12.70
2019-03-27T18:14:04.809Z,13.47
2019-03-27T18:16:07.260Z,13.63
2019-03-27T18:18:09.716Z,12.57
2019-03-27T18:20:12.178Z,12.60
2019-03-27T18:22:14.454Z,13.13
2019-03-27T18:24:16.726Z,12.90
2019-03-27T18:26:19.089Z,12.10
2019-03-27T18:28:21.366Z,12.03
2019-03-27T18:30:23.705Z,12.00
2019-03-27T18:32:25.994Z,12.77
2019-03-27T18:34:28.261Z,12.00
2019-03-27T18:36:30.505Z,11.50
2019-03-27T18:38:33.034Z,12.00
2019-03-27T18:40:35.559Z,12.43
2019-03-27T18:42:37.809Z,11.37
2019-03-27T18:44:40.074Z,13.13
2019-03-27T18:46:44.232Z,12.20
2019-03-27T18:48:46.516Z,11.20
2019-03-27T18:50:48.762Z,10.93
2019-03-27T18:52:51.045Z,13.13
2019-03-27T18:54:53.314Z,11.00
2019-03-27T18:56:55.574Z,11.30
2019-03-27T18:58:58.197Z,12.03
2019-03-27T19:01:00.618Z,13.77
2019-03-27T19:03:02.968Z,12.40
2019-03-27T19:05:06.049Z,12.33
2019-03-27T19:07:08.685Z,11.40
2019-03-27T19:09:11.768Z,11.43
2019-03-27T19:11:14.195Z,11.63
2019-03-27T19:13:16.550Z,12.10
2019-03-27T19:15:18.943Z,12.23
2019-03-27T19:17:21.192Z,11.63
2019-03-27T19:19:23.480Z,12.30
2019-03-27T19:21:25.869Z,11.30
2019-03-27T19:23:28.145Z,13.47
2019-03-27T19:25:30.778Z,11.00
2019-03-27T19:27:33.198Z,13.00
2019-03-27T19:29:35.504Z,11.37
2019-03-27T19:31:37.864Z,11.97
2019-03-27T19:33:40.158Z,12.17
2019-03-27T19:35:42.410Z,13.20
2019-03-27T19:37:44.776Z,12.30
2019-03-27T19:39:49.760Z,13.80
2019-03-27T19:41:52.077Z,13.43
2019-03-27T19:43:54.446Z,13.60
2019-03-27T19:45:57.602Z,12.97
2019-03-27T19:48:00.065Z,13.33
2019-03-27T19:50:03.086Z,13.33
2019-03-27T19:52:05.353Z,12.70
2019-03-27T19:54:10.810Z,12.90
2019-03-27T19:56:17.574Z,13.30
2019-03-27T19:58:20.065Z,13.57
2019-03-27T20:00:23.903Z,13.37
2019-03-27T20:02:26.245Z,12.90
2019-03-27T20:04:28.662Z,13.60
2019-03-27T20:06:31.053Z,14.67
2019-03-27T20:08:33.313Z,13.77
2019-03-27T20:10:35.562Z,14.93
2019-03-27T20:12:38.815Z,14.33
2019-03-27T20:14:42.622Z,13.73
2019-03-27T20:16:45.232Z,16.57
2019-03-27T20:18:47.825Z,13.87
2019-03-27T20:20:50.224Z,14.30
2019-03-27T20:22:52.477Z,14.20
2019-03-27T20:24:54.862Z,15.17
2019-03-27T20:26:57.121Z,14.33
2019-03-27T20:28:59.466Z,14.80
2019-03-27T20:31:01.745Z,13.93
2019-03-27T20:33:04.097Z,15.47
2019-03-27T20:35:06.807Z,14.03
2019-03-27T20:37:09.344Z,14.77
2019-03-27T20:39:11.597Z,15.20
2019-03-27T20:41:13.873Z,14.63
2019-03-27T20:43:16.121Z,14.67
2019-03-27T20:45:18.457Z,16.20
2019-03-27T20:47:21.057Z,16.23
2019-03-27T20:49:23.319Z,15.47
2019-03-27T20:51:25.577Z,16.60
2019-03-27T20:53:28.326Z,14.87
2019-03-27T20:55:31.130Z,14.33
2019-03-27T20:57:33.737Z,14.90
2019-03-27T20:59:36.451Z,15.30
2019-03-27T21:01:40.545Z,16.00
2019-03-27T21:03:42.851Z,14.53
2019-03-27T21:05:45.643Z,14.73
2019-03-27T21:07:48.229Z,17.47
2019-03-27T21:09:53.204Z,16.37
2019-03-27T21:11:56.202Z,16.67
2019-03-27T21:13:58.705Z,29.27
2019-03-27T21:16:00.993Z,17.90
2019-03-27T21:18:03.612Z,17.47
2019-03-27T21:20:08.063Z,15.90
2019-03-27T21:22:10.310Z,16.10
2019-03-27T21:24:12.625Z,16.07
2019-03-27T21:26:14.957Z,18.07
2019-03-27T21:28:17.230Z,16.47
2019-03-27T21:30:19.520Z,16.70
2019-03-27T21:32:21.765Z,17.33
2019-03-27T21:34:24.357Z,17.80
2019-03-27T21:36:26.606Z,16.43
2019-03-27T21:38:28.857Z,17.47
2019-03-27T21:40:31.438Z,17.10
2019-03-27T21:42:33.697Z,18.03
2019-03-27T21:44:35.946Z,19.37
2019-03-27T21:46:38.209Z,18.13
2019-03-27T21:48:40.575Z,18.13
2019-03-27T21:50:42.929Z,17.93
2019-03-27T21:52:45.217Z,17.43
2019-03-27T21:54:48.550Z,21.07
2019-03-27T21:56:50.814Z,17.00
2019-03-27T21:58:53.133Z,18.63
2019-03-27T22:00:55.621Z,17.40
2019-03-27T22:02:58.189Z,17.30
2019-03-27T22:05:00.415Z,19.60
2019-03-27T22:07:02.914Z,17.50
2019-03-27T22:09:06.205Z,19.53
2019-03-27T22:11:08.450Z,17.10
2019-03-27T22:13:11.343Z,20.03
2019-03-27T22:15:13.789Z,17.53
2019-03-27T22:17:16.199Z,17.50
2019-03-27T22:19:18.479Z,18.83
2019-03-27T22:21:20.940Z,17.30
2019-03-27T22:23:23.191Z,18.40
2019-03-27T22:25:35.372Z,19.30
2019-03-27T22:27:29.630Z,18.50
2019-03-27T22:29:31.902Z,18.00
2019-03-27T22:31:34.195Z,18.60
2019-03-27T22:33:36.505Z,19.17
2019-03-27T22:35:39.022Z,20.30
2019-03-27T22:37:41.284Z,20.83
2019-03-27T22:39:43.657Z,31.73
2019-03-27T22:41:46.852Z,20.23
2019-03-27T22:43:49.198Z,19.30
2019-03-27T22:45:51.534Z,22.13
2019-03-27T22:47:53.795Z,20.47
2019-03-27T22:49:56.049Z,20.43
2019-03-27T22:51:58.409Z,21.17
2019-03-27T22:54:00.653Z,21.73
2019-03-27T22:56:02.913Z,18.97
2019-03-27T22:58:05.351Z,20.70
2019-03-27T23:00:08.697Z,21.40
2019-03-27T23:02:11.169Z,23.23
2019-03-27T23:04:13.853Z,20.13
2019-03-27T23:06:16.206Z,19.00
2019-03-27T23:08:18.595Z,20.30
2019-03-27T23:10:20.856Z,17.97
2019-03-27T23:12:23.217Z,18.53
2019-03-27T23:14:25.594Z,18.20
2019-03-27T23:16:27.963Z,19.13
2019-03-27T23:18:30.241Z,18.73
2019-03-27T23:20:32.813Z,21.50
2019-03-27T23:22:35.175Z,19.30
2019-03-27T23:24:37.418Z,18.60
2019-03-27T23:26:39.769Z,19.20
2019-03-27T23:28:42.033Z,21.13
2019-03-27T23:30:44.320Z,19.43
2019-03-27T23:32:46.703Z,19.27
2019-03-27T23:34:48.977Z,19.53
2019-03-27T23:36:51.232Z,19.30
2019-03-27T23:38:53.499Z,20.13
2019-03-27T23:40:56.442Z,21.30
2019-03-27T23:42:59.062Z,20.17
2019-03-27T23:45:01.780Z,20.07
2019-03-27T23:47:04.053Z,20.40
2019-03-27T23:49:06.429Z,19.40
2019-03-27T23:51:08.677Z,19.10
2019-03-27T23:53:11.056Z,19.70
2019-03-27T23:55:13.423Z,18.90
2019-03-27T23:57:15.692Z,19.97
2019-03-27T23:59:18.097Z,19.40
